sensor_id;sensor_type;location;lat;lon;timestamp;P1;durP1;ratioP1;P2;durP2;ratioP2
22363;SDS011;11349;53.412;-1.328;2023-04-06T00:00:31;9.57;;;7.90;;
22363;SDS011;11349;53.412;-1.328;2023-04-06T00:02:57;9.65;;;7.97;;
22363;SDS011;11349;53.412;-1.328;2023-04-06T00:05:22;9.05;;;6.75;;
22363;SDS011;11349;53.412;-1.328;2023-04-06T00:07:48;8.75;;;6.82;;
22363;SDS011;11349;53.412;-1.328;2023-04-06T00:10:15;8.68;;;6.80;;
22363;SDS011;11349;53.412;-1.328;2023-04-06T00:12:41;8.65;;;7.15;;
22363;SDS011;11349;53.412;-1.328;2023-04-06T00:15:08;9.35;;;7.18;;
22363;SDS011;11349;53.412;-1.328;2023-04-06T00:17:34;10.05;;;7.28;;
22363;SDS011;11349;53.412;-1.328;2023-04-06T00:20:00;9.98;;;7.85;;
22363;SDS011;11349;53.412;-1.328;2023-04-06T00:22:26;11.23;;;7.95;;
22363;SDS011;11349;53.412;-1.328;2023-04-06T00:24:52;11.23;;;8.25;;
22363;SDS011;11349;53.412;-1.328;2023-04-06T00:27:17;10.15;;;7.47;;
22363;SDS011;11349;53.412;-1.328;2023-04-06T00:29:43;11.27;;;8.25;;
22363;SDS011;11349;53.412;-1.328;2023-04-06T00:32:10;12.13;;;8.00;;
22363;SDS011;11349;53.412;-1.328;2023-04-06T00:34:36;10.15;;;8.10;;
22363;SDS011;11349;53.412;-1.328;2023-04-06T00:37:01;10.95;;;8.77;;
22363;SDS011;11349;53.412;-1.328;2023-04-06T00:39:27;12.32;;;9.45;;
22363;SDS011;11349;53.412;-1.328;2023-04-06T00:41:53;9.85;;;7.85;;
22363;SDS011;11349;53.412;-1.328;2023-04-06T00:44:20;10.13;;;8.43;;
22363;SDS011;11349;53.412;-1.328;2023-04-06T00:46:46;9.70;;;7.93;;
22363;SDS011;11349;53.412;-1.328;2023-04-06T00:49:12;10.35;;;8.73;;
22363;SDS011;11349;53.412;-1.328;2023-04-06T00:51:38;10.43;;;8.15;;
22363;SDS011;11349;53.412;-1.328;2023-04-06T00:54:03;10.13;;;7.95;;
22363;SDS011;11349;53.412;-1.328;2023-04-06T00:56:30;10.30;;;8.38;;
22363;SDS011;11349;53.412;-1.328;2023-04-06T00:58:56;10.68;;;7.68;;
22363;SDS011;11349;53.412;-1.328;2023-04-06T01:01:22;10.52;;;8.20;;
22363;SDS011;11349;53.412;-1.328;2023-04-06T01:03:49;10.45;;;8.25;;
22363;SDS011;11349;53.412;-1.328;2023-04-06T01:06:15;10.20;;;8.20;;
22363;SDS011;11349;53.412;-1.328;2023-04-06T01:08:41;10.70;;;8.52;;
22363;SDS011;11349;53.412;-1.328;2023-04-06T01:11:07;10.75;;;8.60;;
22363;SDS011;11349;53.412;-1.328;2023-04-06T01:13:33;11.63;;;8.35;;
22363;SDS011;11349;53.412;-1.328;2023-04-06T01:15:58;10.32;;;8.60;;
22363;SDS011;11349;53.412;-1.328;2023-04-06T01:18:27;11.30;;;9.23;;
22363;SDS011;11349;53.412;-1.328;2023-04-06T01:20:54;11.68;;;8.68;;
22363;SDS011;11349;53.412;-1.328;2023-04-06T01:23:20;11.13;;;8.32;;
22363;SDS011;11349;53.412;-1.328;2023-04-06T01:25:45;11.70;;;8.82;;
22363;SDS011;11349;53.412;-1.328;2023-04-06T01:28:11;11.93;;;8.85;;
22363;SDS011;11349;53.412;-1.328;2023-04-06T01:30:37;10.88;;;8.52;;
22363;SDS011;11349;53.412;-1.328;2023-04-06T01:33:02;11.68;;;8.85;;
22363;SDS011;11349;53.412;-1.328;2023-04-06T01:35:29;10.48;;;8.00;;
22363;SDS011;11349;53.412;-1.328;2023-04-06T01:37:55;9.15;;;7.22;;
22363;SDS011;11349;53.412;-1.328;2023-04-06T01:40:21;11.30;;;8.93;;
22363;SDS011;11349;53.412;-1.328;2023-04-06T01:42:47;12.15;;;8.85;;
22363;SDS011;11349;53.412;-1.328;2023-04-06T01:45:13;12.43;;;9.35;;
22363;SDS011;11349;53.412;-1.328;2023-04-06T01:47:38;13.27;;;9.82;;
22363;SDS011;11349;53.412;-1.328;2023-04-06T01:50:04;11.88;;;9.38;;
22363;SDS011;11349;53.412;-1.328;2023-04-06T01:52:32;13.48;;;9.73;;
22363;SDS011;11349;53.412;-1.328;2023-04-06T01:54:58;11.57;;;8.10;;
22363;SDS011;11349;53.412;-1.328;2023-04-06T01:57:24;13.77;;;9.70;;
22363;SDS011;11349;53.412;-1.328;2023-04-06T01:59:50;11.95;;;8.93;;
22363;SDS011;11349;53.412;-1.328;2023-04-06T02:02:16;11.10;;;8.70;;
22363;SDS011;11349;53.412;-1.328;2023-04-06T02:04:42;12.40;;;9.75;;
22363;SDS011;11349;53.412;-1.328;2023-04-06T02:07:08;11.57;;;9.00;;
22363;SDS011;11349;53.412;-1.328;2023-04-06T02:09:34;12.57;;;8.77;;
22363;SDS011;11349;53.412;-1.328;2023-04-06T02:12:00;10.90;;;8.40;;
22363;SDS011;11349;53.412;-1.328;2023-04-06T02:14:26;11.07;;;8.68;;
22363;SDS011;11349;53.412;-1.328;2023-04-06T02:16:52;9.27;;;7.07;;
22363;SDS011;11349;53.412;-1.328;2023-04-06T02:19:18;12.27;;;8.07;;
22363;SDS011;11349;53.412;-1.328;2023-04-06T02:21:44;11.70;;;7.88;;
22363;SDS011;11349;53.412;-1.328;2023-04-06T02:24:10;9.43;;;6.78;;
22363;SDS011;11349;53.412;-1.328;2023-04-06T02:26:36;9.77;;;6.95;;
22363;SDS011;11349;53.412;-1.328;2023-04-06T02:29:01;9.85;;;7.80;;
22363;SDS011;11349;53.412;-1.328;2023-04-06T02:31:27;9.48;;;7.68;;
22363;SDS011;11349;53.412;-1.328;2023-04-06T02:33:53;10.82;;;8.30;;
22363;SDS011;11349;53.412;-1.328;2023-04-06T02:36:19;12.45;;;9.23;;
22363;SDS011;11349;53.412;-1.328;2023-04-06T02:38:45;10.77;;;8.65;;
22363;SDS011;11349;53.412;-1.328;2023-04-06T02:41:11;11.77;;;9.07;;
22363;SDS011;11349;53.412;-1.328;2023-04-06T02:43:36;12.70;;;9.48;;
22363;SDS011;11349;53.412;-1.328;2023-04-06T02:46:02;13.15;;;9.88;;
22363;SDS011;11349;53.412;-1.328;2023-04-06T02:48:28;13.45;;;10.05;;
22363;SDS011;11349;53.412;-1.328;2023-04-06T02:50:53;13.55;;;10.70;;
22363;SDS011;11349;53.412;-1.328;2023-04-06T02:53:19;15.65;;;10.68;;
22363;SDS011;11349;53.412;-1.328;2023-04-06T02:55:45;12.95;;;10.10;;
22363;SDS011;11349;53.412;-1.328;2023-04-06T02:58:11;11.85;;;9.40;;
22363;SDS011;11349;53.412;-1.328;2023-04-06T03:00:37;13.60;;;9.73;;
22363;SDS011;11349;53.412;-1.328;2023-04-06T03:03:02;11.38;;;8.93;;
22363;SDS011;11349;53.412;-1.328;2023-04-06T03:05:28;13.60;;;9.60;;
22363;SDS011;11349;53.412;-1.328;2023-04-06T03:07:54;14.98;;;10.40;;
22363;SDS011;11349;53.412;-1.328;2023-04-06T03:10:20;12.32;;;9.52;;
22363;SDS011;11349;53.412;-1.328;2023-04-06T03:12:45;12.80;;;10.02;;
22363;SDS011;11349;53.412;-1.328;2023-04-06T03:15:11;12.75;;;9.82;;
22363;SDS011;11349;53.412;-1.328;2023-04-06T03:17:37;11.70;;;9.27;;
22363;SDS011;11349;53.412;-1.328;2023-04-06T03:20:03;12.95;;;9.95;;
22363;SDS011;11349;53.412;-1.328;2023-04-06T03:22:30;13.95;;;10.73;;
22363;SDS011;11349;53.412;-1.328;2023-04-06T03:24:55;13.90;;;9.38;;
22363;SDS011;11349;53.412;-1.328;2023-04-06T03:27:21;13.48;;;9.73;;
22363;SDS011;11349;53.412;-1.328;2023-04-06T03:29:47;12.65;;;9.70;;
22363;SDS011;11349;53.412;-1.328;2023-04-06T03:32:12;13.43;;;9.77;;
22363;SDS011;11349;53.412;-1.328;2023-04-06T03:34:38;13.70;;;10.50;;
22363;SDS011;11349;53.412;-1.328;2023-04-06T03:37:04;14.60;;;10.50;;
22363;SDS011;11349;53.412;-1.328;2023-04-06T03:39:30;16.30;;;10.45;;
22363;SDS011;11349;53.412;-1.328;2023-04-06T03:41:56;14.40;;;10.27;;
22363;SDS011;11349;53.412;-1.328;2023-04-06T03:44:22;14.63;;;10.43;;
22363;SDS011;11349;53.412;-1.328;2023-04-06T03:46:48;14.68;;;9.95;;
22363;SDS011;11349;53.412;-1.328;2023-04-06T03:49:13;14.95;;;10.95;;
22363;SDS011;11349;53.412;-1.328;2023-04-06T03:51:39;14.88;;;10.52;;
22363;SDS011;11349;53.412;-1.328;2023-04-06T03:54:05;15.45;;;11.38;;
22363;SDS011;11349;53.412;-1.328;2023-04-06T03:56:30;14.30;;;10.13;;
22363;SDS011;11349;53.412;-1.328;2023-04-06T03:58:56;15.10;;;11.00;;
22363;SDS011;11349;53.412;-1.328;2023-04-06T04:01:22;14.45;;;10.35;;
22363;SDS011;11349;53.412;-1.328;2023-04-06T04:03:48;15.07;;;10.38;;
22363;SDS011;11349;53.412;-1.328;2023-04-06T04:06:13;15.45;;;10.55;;
22363;SDS011;11349;53.412;-1.328;2023-04-06T04:08:39;14.10;;;10.30;;
22363;SDS011;11349;53.412;-1.328;2023-04-06T04:11:05;16.30;;;11.27;;
22363;SDS011;11349;53.412;-1.328;2023-04-06T04:13:30;13.65;;;10.25;;
22363;SDS011;11349;53.412;-1.328;2023-04-06T04:15:56;16.35;;;11.15;;
22363;SDS011;11349;53.412;-1.328;2023-04-06T04:18:22;17.50;;;12.02;;
22363;SDS011;11349;53.412;-1.328;2023-04-06T04:20:47;17.27;;;11.15;;
22363;SDS011;11349;53.412;-1.328;2023-04-06T04:23:13;16.08;;;11.07;;
22363;SDS011;11349;53.412;-1.328;2023-04-06T04:25:39;13.65;;;9.73;;
22363;SDS011;11349;53.412;-1.328;2023-04-06T04:28:05;13.65;;;9.43;;
22363;SDS011;11349;53.412;-1.328;2023-04-06T04:30:31;13.27;;;9.40;;
22363;SDS011;11349;53.412;-1.328;2023-04-06T04:32:57;12.10;;;8.15;;
22363;SDS011;11349;53.412;-1.328;2023-04-06T04:35:22;15.00;;;10.00;;
22363;SDS011;11349;53.412;-1.328;2023-04-06T04:37:48;15.63;;;9.02;;
22363;SDS011;11349;53.412;-1.328;2023-04-06T04:40:14;14.23;;;8.93;;
22363;SDS011;11349;53.412;-1.328;2023-04-06T04:42:41;15.73;;;10.70;;
22363;SDS011;11349;53.412;-1.328;2023-04-06T04:45:07;14.35;;;9.98;;
22363;SDS011;11349;53.412;-1.328;2023-04-06T04:47:33;13.65;;;9.32;;
22363;SDS011;11349;53.412;-1.328;2023-04-06T04:49:59;15.25;;;8.20;;
22363;SDS011;11349;53.412;-1.328;2023-04-06T04:52:25;11.68;;;7.30;;
22363;SDS011;11349;53.412;-1.328;2023-04-06T04:54:50;9.63;;;6.00;;
22363;SDS011;11349;53.412;-1.328;2023-04-06T04:57:16;10.07;;;4.95;;
22363;SDS011;11349;53.412;-1.328;2023-04-06T04:59:42;8.77;;;4.35;;
22363;SDS011;11349;53.412;-1.328;2023-04-06T05:02:08;8.38;;;4.15;;
22363;SDS011;11349;53.412;-1.328;2023-04-06T05:04:35;8.10;;;3.85;;
22363;SDS011;11349;53.412;-1.328;2023-04-06T05:07:04;8.93;;;4.03;;
22363;SDS011;11349;53.412;-1.328;2023-04-06T05:09:33;6.82;;;3.80;;
22363;SDS011;11349;53.412;-1.328;2023-04-06T05:12:00;8.10;;;4.60;;
22363;SDS011;11349;53.412;-1.328;2023-04-06T05:14:26;6.90;;;4.97;;
22363;SDS011;11349;53.412;-1.328;2023-04-06T05:16:52;12.80;;;5.75;;
22363;SDS011;11349;53.412;-1.328;2023-04-06T05:19:19;7.82;;;5.20;;
22363;SDS011;11349;53.412;-1.328;2023-04-06T05:21:45;8.38;;;5.38;;
22363;SDS011;11349;53.412;-1.328;2023-04-06T05:24:11;8.73;;;5.78;;
22363;SDS011;11349;53.412;-1.328;2023-04-06T05:26:36;7.68;;;4.90;;
22363;SDS011;11349;53.412;-1.328;2023-04-06T05:29:02;9.77;;;5.35;;
22363;SDS011;11349;53.412;-1.328;2023-04-06T05:31:28;8.73;;;5.55;;
22363;SDS011;11349;53.412;-1.328;2023-04-06T05:33:55;10.60;;;5.55;;
22363;SDS011;11349;53.412;-1.328;2023-04-06T05:36:24;10.23;;;5.32;;
22363;SDS011;11349;53.412;-1.328;2023-04-06T05:38:50;9.20;;;5.25;;
22363;SDS011;11349;53.412;-1.328;2023-04-06T05:41:17;8.07;;;5.40;;
22363;SDS011;11349;53.412;-1.328;2023-04-06T05:43:43;8.50;;;5.60;;
22363;SDS011;11349;53.412;-1.328;2023-04-06T05:46:09;9.73;;;5.63;;
22363;SDS011;11349;53.412;-1.328;2023-04-06T05:48:35;9.38;;;5.85;;
22363;SDS011;11349;53.412;-1.328;2023-04-06T05:51:01;11.23;;;5.32;;
22363;SDS011;11349;53.412;-1.328;2023-04-06T05:53:31;9.45;;;6.20;;
22363;SDS011;11349;53.412;-1.328;2023-04-06T05:55:57;12.32;;;7.07;;
22363;SDS011;11349;53.412;-1.328;2023-04-06T05:58:26;11.80;;;7.88;;
22363;SDS011;11349;53.412;-1.328;2023-04-06T06:00:56;16.08;;;9.43;;
22363;SDS011;11349;53.412;-1.328;2023-04-06T06:03:25;15.70;;;9.82;;
22363;SDS011;11349;53.412;-1.328;2023-04-06T06:05:51;13.88;;;8.07;;
22363;SDS011;11349;53.412;-1.328;2023-04-06T06:08:17;13.05;;;8.25;;
22363;SDS011;11349;53.412;-1.328;2023-04-06T06:10:42;11.98;;;7.55;;
22363;SDS011;11349;53.412;-1.328;2023-04-06T06:13:08;11.82;;;7.80;;
22363;SDS011;11349;53.412;-1.328;2023-04-06T06:15:34;10.75;;;7.30;;
22363;SDS011;11349;53.412;-1.328;2023-04-06T06:18:00;11.63;;;7.25;;
22363;SDS011;11349;53.412;-1.328;2023-04-06T06:20:26;17.08;;;7.53;;
22363;SDS011;11349;53.412;-1.328;2023-04-06T06:22:52;11.88;;;6.63;;
22363;SDS011;11349;53.412;-1.328;2023-04-06T06:25:18;9.52;;;6.30;;
22363;SDS011;11349;53.412;-1.328;2023-04-06T06:27:44;10.68;;;6.88;;
22363;SDS011;11349;53.412;-1.328;2023-04-06T06:30:10;10.15;;;6.57;;
22363;SDS011;11349;53.412;-1.328;2023-04-06T06:32:35;10.85;;;7.22;;
22363;SDS011;11349;53.412;-1.328;2023-04-06T06:35:01;11.63;;;7.18;;
22363;SDS011;11349;53.412;-1.328;2023-04-06T06:37:27;14.70;;;7.45;;
22363;SDS011;11349;53.412;-1.328;2023-04-06T06:39:53;11.18;;;7.07;;
22363;SDS011;11349;53.412;-1.328;2023-04-06T06:42:19;11.80;;;7.72;;
22363;SDS011;11349;53.412;-1.328;2023-04-06T06:44:45;11.70;;;8.27;;
22363;SDS011;11349;53.412;-1.328;2023-04-06T06:47:11;15.95;;;9.82;;
22363;SDS011;11349;53.412;-1.328;2023-04-06T06:49:36;14.93;;;9.07;;
22363;SDS011;11349;53.412;-1.328;2023-04-06T06:52:02;15.25;;;9.90;;
22363;SDS011;11349;53.412;-1.328;2023-04-06T06:54:28;13.02;;;8.43;;
22363;SDS011;11349;53.412;-1.328;2023-04-06T06:56:53;12.50;;;7.55;;
22363;SDS011;11349;53.412;-1.328;2023-04-06T06:59:19;11.73;;;7.50;;
22363;SDS011;11349;53.412;-1.328;2023-04-06T07:01:46;9.23;;;6.30;;
22363;SDS011;11349;53.412;-1.328;2023-04-06T07:04:11;8.82;;;5.90;;
22363;SDS011;11349;53.412;-1.328;2023-04-06T07:06:37;10.52;;;5.80;;
22363;SDS011;11349;53.412;-1.328;2023-04-06T07:09:03;9.85;;;5.65;;
22363;SDS011;11349;53.412;-1.328;2023-04-06T07:11:32;9.50;;;5.72;;
22363;SDS011;11349;53.412;-1.328;2023-04-06T07:13:57;8.82;;;4.80;;
22363;SDS011;11349;53.412;-1.328;2023-04-06T07:16:23;7.78;;;4.70;;
22363;SDS011;11349;53.412;-1.328;2023-04-06T07:18:48;4.93;;;3.30;;
22363;SDS011;11349;53.412;-1.328;2023-04-06T07:21:15;6.93;;;3.88;;
22363;SDS011;11349;53.412;-1.328;2023-04-06T07:23:41;5.22;;;3.70;;
22363;SDS011;11349;53.412;-1.328;2023-04-06T07:26:06;6.00;;;3.58;;
22363;SDS011;11349;53.412;-1.328;2023-04-06T07:28:32;4.78;;;2.00;;
22363;SDS011;11349;53.412;-1.328;2023-04-06T07:30:58;4.38;;;1.65;;
22363;SDS011;11349;53.412;-1.328;2023-04-06T07:33:24;4.40;;;2.20;;
22363;SDS011;11349;53.412;-1.328;2023-04-06T07:35:54;3.97;;;1.80;;
22363;SDS011;11349;53.412;-1.328;2023-04-06T07:38:21;2.95;;;1.35;;
22363;SDS011;11349;53.412;-1.328;2023-04-06T07:40:46;4.47;;;1.50;;
22363;SDS011;11349;53.412;-1.328;2023-04-06T07:43:12;3.80;;;1.98;;
22363;SDS011;11349;53.412;-1.328;2023-04-06T07:45:38;5.40;;;2.75;;
22363;SDS011;11349;53.412;-1.328;2023-04-06T07:48:03;7.95;;;2.50;;
22363;SDS011;11349;53.412;-1.328;2023-04-06T07:50:29;7.45;;;3.25;;
22363;SDS011;11349;53.412;-1.328;2023-04-06T07:52:55;6.35;;;2.55;;
22363;SDS011;11349;53.412;-1.328;2023-04-06T07:55:21;5.93;;;1.80;;
22363;SDS011;11349;53.412;-1.328;2023-04-06T07:57:47;4.88;;;1.60;;
22363;SDS011;11349;53.412;-1.328;2023-04-06T08:00:12;4.28;;;1.40;;
22363;SDS011;11349;53.412;-1.328;2023-04-06T08:02:38;4.40;;;1.63;;
22363;SDS011;11349;53.412;-1.328;2023-04-06T08:05:04;5.20;;;1.20;;
22363;SDS011;11349;53.412;-1.328;2023-04-06T08:07:30;4.03;;;1.20;;
22363;SDS011;11349;53.412;-1.328;2023-04-06T08:09:56;4.85;;;1.15;;
22363;SDS011;11349;53.412;-1.328;2023-04-06T08:12:22;7.90;;;1.50;;
22363;SDS011;11349;53.412;-1.328;2023-04-06T08:14:48;8.98;;;1.42;;
22363;SDS011;11349;53.412;-1.328;2023-04-06T08:17:14;8.38;;;1.33;;
22363;SDS011;11349;53.412;-1.328;2023-04-06T08:19:41;3.47;;;1.33;;
22363;SDS011;11349;53.412;-1.328;2023-04-06T08:22:08;4.10;;;1.25;;
22363;SDS011;11349;53.412;-1.328;2023-04-06T08:24:34;6.72;;;1.40;;
22363;SDS011;11349;53.412;-1.328;2023-04-06T08:27:00;6.68;;;1.65;;
22363;SDS011;11349;53.412;-1.328;2023-04-06T08:29:25;6.40;;;1.40;;
22363;SDS011;11349;53.412;-1.328;2023-04-06T08:31:51;4.72;;;1.60;;
22363;SDS011;11349;53.412;-1.328;2023-04-06T08:34:17;5.55;;;1.38;;
22363;SDS011;11349;53.412;-1.328;2023-04-06T08:36:43;4.78;;;1.52;;
22363;SDS011;11349;53.412;-1.328;2023-04-06T08:39:09;7.05;;;1.88;;
22363;SDS011;11349;53.412;-1.328;2023-04-06T08:41:34;7.57;;;1.85;;
22363;SDS011;11349;53.412;-1.328;2023-04-06T08:44:01;5.07;;;1.48;;
22363;SDS011;11349;53.412;-1.328;2023-04-06T08:46:30;4.05;;;1.42;;
22363;SDS011;11349;53.412;-1.328;2023-04-06T08:48:57;3.97;;;1.60;;
22363;SDS011;11349;53.412;-1.328;2023-04-06T08:51:24;6.70;;;1.77;;
22363;SDS011;11349;53.412;-1.328;2023-04-06T08:53:56;8.00;;;2.13;;
22363;SDS011;11349;53.412;-1.328;2023-04-06T08:56:26;6.57;;;1.40;;
22363;SDS011;11349;53.412;-1.328;2023-04-06T08:58:54;8.63;;;2.00;;
22363;SDS011;11349;53.412;-1.328;2023-04-06T09:01:21;7.13;;;1.60;;
22363;SDS011;11349;53.412;-1.328;2023-04-06T09:03:55;8.00;;;1.85;;
22363;SDS011;11349;53.412;-1.328;2023-04-06T09:06:30;5.35;;;1.05;;
22363;SDS011;11349;53.412;-1.328;2023-04-06T09:08:56;4.95;;;1.40;;
22363;SDS011;11349;53.412;-1.328;2023-04-06T09:11:23;7.65;;;1.55;;
22363;SDS011;11349;53.412;-1.328;2023-04-06T09:16:19;8.38;;;1.70;;
22363;SDS011;11349;53.412;-1.328;2023-04-06T09:18:45;9.02;;;1.75;;
22363;SDS011;11349;53.412;-1.328;2023-04-06T09:21:12;9.65;;;1.80;;
22363;SDS011;11349;53.412;-1.328;2023-04-06T09:23:38;5.45;;;1.60;;
22363;SDS011;11349;53.412;-1.328;2023-04-06T09:26:12;7.60;;;1.40;;
22363;SDS011;11349;53.412;-1.328;2023-04-06T09:28:42;7.70;;;2.17;;
22363;SDS011;11349;53.412;-1.328;2023-04-06T09:31:22;8.63;;;1.70;;
22363;SDS011;11349;53.412;-1.328;2023-04-06T09:33:52;6.97;;;2.22;;
22363;SDS011;11349;53.412;-1.328;2023-04-06T09:36:18;14.63;;;2.75;;
22363;SDS011;11349;53.412;-1.328;2023-04-06T09:38:58;9.98;;;2.10;;
22363;SDS011;11349;53.412;-1.328;2023-04-06T09:41:26;8.30;;;2.20;;
22363;SDS011;11349;53.412;-1.328;2023-04-06T09:46:31;9.00;;;2.05;;
22363;SDS011;11349;53.412;-1.328;2023-04-06T09:49:00;7.00;;;2.40;;
22363;SDS011;11349;53.412;-1.328;2023-04-06T09:51:29;9.45;;;2.35;;
22363;SDS011;11349;53.412;-1.328;2023-04-06T09:53:57;8.38;;;2.60;;
22363;SDS011;11349;53.412;-1.328;2023-04-06T09:56:31;8.30;;;1.98;;
22363;SDS011;11349;53.412;-1.328;2023-04-06T10:08:10;12.73;;;2.33;;
22363;SDS011;11349;53.412;-1.328;2023-04-06T10:10:37;6.53;;;2.40;;
22363;SDS011;11349;53.412;-1.328;2023-04-06T10:13:06;9.32;;;1.30;;
22363;SDS011;11349;53.412;-1.328;2023-04-06T10:15:35;5.28;;;1.83;;
22363;SDS011;11349;53.412;-1.328;2023-04-06T10:18:03;8.77;;;1.42;;
22363;SDS011;11349;53.412;-1.328;2023-04-06T10:25:33;7.65;;;1.63;;
22363;SDS011;11349;53.412;-1.328;2023-04-06T10:28:05;8.07;;;1.50;;
22363;SDS011;11349;53.412;-1.328;2023-04-06T10:30:33;10.35;;;1.50;;
22363;SDS011;11349;53.412;-1.328;2023-04-06T10:33:16;10.20;;;1.52;;
22363;SDS011;11349;53.412;-1.328;2023-04-06T10:35:44;8.27;;;1.60;;
22363;SDS011;11349;53.412;-1.328;2023-04-06T10:38:10;6.93;;;1.27;;
22363;SDS011;11349;53.412;-1.328;2023-04-06T10:40:39;6.78;;;1.80;;
22363;SDS011;11349;53.412;-1.328;2023-04-06T10:43:09;5.93;;;1.40;;
22363;SDS011;11349;53.412;-1.328;2023-04-06T10:45:37;10.50;;;1.55;;
22363;SDS011;11349;53.412;-1.328;2023-04-06T10:48:14;5.45;;;1.40;;
22363;SDS011;11349;53.412;-1.328;2023-04-06T10:50:44;10.90;;;2.30;;
22363;SDS011;11349;53.412;-1.328;2023-04-06T10:53:19;9.20;;;1.63;;
22363;SDS011;11349;53.412;-1.328;2023-04-06T10:55:46;8.30;;;1.88;;
22363;SDS011;11349;53.412;-1.328;2023-04-06T10:58:14;7.93;;;1.40;;
22363;SDS011;11349;53.412;-1.328;2023-04-06T11:00:46;7.47;;;1.80;;
22363;SDS011;11349;53.412;-1.328;2023-04-06T11:03:13;8.68;;;1.85;;
22363;SDS011;11349;53.412;-1.328;2023-04-06T11:05:43;8.00;;;1.80;;
22363;SDS011;11349;53.412;-1.328;2023-04-06T11:08:25;10.65;;;1.83;;
22363;SDS011;11349;53.412;-1.328;2023-04-06T11:11:03;9.73;;;1.58;;
22363;SDS011;11349;53.412;-1.328;2023-04-06T11:14:03;9.25;;;1.63;;
22363;SDS011;11349;53.412;-1.328;2023-04-06T11:18:51;7.88;;;2.10;;
22363;SDS011;11349;53.412;-1.328;2023-04-06T11:29:08;10.63;;;1.45;;
22363;SDS011;11349;53.412;-1.328;2023-04-06T11:31:47;7.60;;;1.52;;
22363;SDS011;11349;53.412;-1.328;2023-04-06T11:34:21;8.82;;;1.88;;
22363;SDS011;11349;53.412;-1.328;2023-04-06T11:36:49;8.05;;;1.60;;
22363;SDS011;11349;53.412;-1.328;2023-04-06T11:39:20;10.48;;;1.98;;
22363;SDS011;11349;53.412;-1.328;2023-04-06T11:41:49;11.68;;;1.77;;
22363;SDS011;11349;53.412;-1.328;2023-04-06T11:44:15;5.90;;;1.20;;
22363;SDS011;11349;53.412;-1.328;2023-04-06T11:46:52;9.50;;;1.70;;
22363;SDS011;11349;53.412;-1.328;2023-04-06T11:49:18;8.95;;;1.67;;
22363;SDS011;11349;53.412;-1.328;2023-04-06T11:51:45;7.25;;;1.92;;
22363;SDS011;11349;53.412;-1.328;2023-04-06T11:54:11;10.27;;;2.42;;
22363;SDS011;11349;53.412;-1.328;2023-04-06T11:56:38;7.03;;;1.25;;
22363;SDS011;11349;53.412;-1.328;2023-04-06T11:59:03;8.27;;;1.63;;
22363;SDS011;11349;53.412;-1.328;2023-04-06T12:01:29;4.68;;;1.70;;
22363;SDS011;11349;53.412;-1.328;2023-04-06T12:03:55;7.80;;;1.38;;
22363;SDS011;11349;53.412;-1.328;2023-04-06T12:06:21;7.53;;;1.27;;
22363;SDS011;11349;53.412;-1.328;2023-04-06T12:08:47;6.25;;;1.20;;
22363;SDS011;11349;53.412;-1.328;2023-04-06T12:11:13;7.82;;;1.40;;
22363;SDS011;11349;53.412;-1.328;2023-04-06T12:13:39;8.93;;;1.85;;
22363;SDS011;11349;53.412;-1.328;2023-04-06T12:16:05;4.63;;;1.30;;
22363;SDS011;11349;53.412;-1.328;2023-04-06T12:18:31;6.03;;;1.30;;
22363;SDS011;11349;53.412;-1.328;2023-04-06T12:20:56;8.88;;;2.20;;
22363;SDS011;11349;53.412;-1.328;2023-04-06T12:23:22;8.90;;;1.20;;
22363;SDS011;11349;53.412;-1.328;2023-04-06T12:25:48;4.68;;;1.30;;
22363;SDS011;11349;53.412;-1.328;2023-04-06T12:28:14;8.52;;;1.15;;
22363;SDS011;11349;53.412;-1.328;2023-04-06T12:30:40;7.40;;;1.52;;
22363;SDS011;11349;53.412;-1.328;2023-04-06T12:33:06;5.72;;;1.77;;
22363;SDS011;11349;53.412;-1.328;2023-04-06T12:35:35;5.20;;;1.20;;
22363;SDS011;11349;53.412;-1.328;2023-04-06T12:38:02;7.82;;;1.70;;
22363;SDS011;11349;53.412;-1.328;2023-04-06T12:40:27;9.68;;;1.42;;
22363;SDS011;11349;53.412;-1.328;2023-04-06T12:42:53;6.57;;;1.50;;
22363;SDS011;11349;53.412;-1.328;2023-04-06T12:45:22;8.50;;;1.20;;
22363;SDS011;11349;53.412;-1.328;2023-04-06T12:47:48;7.43;;;1.40;;
22363;SDS011;11349;53.412;-1.328;2023-04-06T12:50:14;8.05;;;1.42;;
22363;SDS011;11349;53.412;-1.328;2023-04-06T12:52:39;6.57;;;1.30;;
22363;SDS011;11349;53.412;-1.328;2023-04-06T12:55:05;5.38;;;1.10;;
22363;SDS011;11349;53.412;-1.328;2023-04-06T12:57:31;7.45;;;1.42;;
22363;SDS011;11349;53.412;-1.328;2023-04-06T12:59:57;7.50;;;1.50;;
22363;SDS011;11349;53.412;-1.328;2023-04-06T13:02:23;7.10;;;2.05;;
22363;SDS011;11349;53.412;-1.328;2023-04-06T13:04:49;8.45;;;1.40;;
22363;SDS011;11349;53.412;-1.328;2023-04-06T13:07:15;4.35;;;1.13;;
22363;SDS011;11349;53.412;-1.328;2023-04-06T13:09:41;8.10;;;1.75;;
22363;SDS011;11349;53.412;-1.328;2023-04-06T13:12:07;4.53;;;1.25;;
22363;SDS011;11349;53.412;-1.328;2023-04-06T13:14:33;8.52;;;1.90;;
22363;SDS011;11349;53.412;-1.328;2023-04-06T13:16:59;8.05;;;1.25;;
22363;SDS011;11349;53.412;-1.328;2023-04-06T13:19:25;5.45;;;1.48;;
22363;SDS011;11349;53.412;-1.328;2023-04-06T13:21:51;4.63;;;1.20;;
22363;SDS011;11349;53.412;-1.328;2023-04-06T13:24:17;8.13;;;1.48;;
22363;SDS011;11349;53.412;-1.328;2023-04-06T13:26:42;5.93;;;0.90;;
22363;SDS011;11349;53.412;-1.328;2023-04-06T13:29:08;5.43;;;0.80;;
22363;SDS011;11349;53.412;-1.328;2023-04-06T13:31:34;4.78;;;1.25;;
22363;SDS011;11349;53.412;-1.328;2023-04-06T13:34:00;7.30;;;1.25;;
22363;SDS011;11349;53.412;-1.328;2023-04-06T13:36:26;6.07;;;1.52;;
22363;SDS011;11349;53.412;-1.328;2023-04-06T13:38:52;5.47;;;1.20;;
22363;SDS011;11349;53.412;-1.328;2023-04-06T13:41:23;7.88;;;1.42;;
22363;SDS011;11349;53.412;-1.328;2023-04-06T13:43:51;7.55;;;1.17;;
22363;SDS011;11349;53.412;-1.328;2023-04-06T13:46:17;7.68;;;1.30;;
22363;SDS011;11349;53.412;-1.328;2023-04-06T13:48:43;4.28;;;1.20;;
22363;SDS011;11349;53.412;-1.328;2023-04-06T13:51:09;7.13;;;1.30;;
22363;SDS011;11349;53.412;-1.328;2023-04-06T13:53:36;3.28;;;0.85;;
22363;SDS011;11349;53.412;-1.328;2023-04-06T13:56:02;6.28;;;1.10;;
22363;SDS011;11349;53.412;-1.328;2023-04-06T13:58:28;5.15;;;1.00;;
22363;SDS011;11349;53.412;-1.328;2023-04-06T14:00:54;6.03;;;1.00;;
22363;SDS011;11349;53.412;-1.328;2023-04-06T14:03:21;4.68;;;1.05;;
22363;SDS011;11349;53.412;-1.328;2023-04-06T14:05:47;3.70;;;0.63;;
22363;SDS011;11349;53.412;-1.328;2023-04-06T14:08:13;4.82;;;0.80;;
22363;SDS011;11349;53.412;-1.328;2023-04-06T14:10:39;4.18;;;0.90;;
22363;SDS011;11349;53.412;-1.328;2023-04-06T14:13:06;7.95;;;1.70;;
22363;SDS011;11349;53.412;-1.328;2023-04-06T14:15:33;3.90;;;0.70;;
22363;SDS011;11349;53.412;-1.328;2023-04-06T14:17:59;5.18;;;1.17;;
22363;SDS011;11349;53.412;-1.328;2023-04-06T14:20:25;5.68;;;0.98;;
22363;SDS011;11349;53.412;-1.328;2023-04-06T14:22:53;8.77;;;1.75;;
22363;SDS011;11349;53.412;-1.328;2023-04-06T14:25:20;6.35;;;1.30;;
22363;SDS011;11349;53.412;-1.328;2023-04-06T14:27:46;7.50;;;1.40;;
22363;SDS011;11349;53.412;-1.328;2023-04-06T14:30:12;4.40;;;0.80;;
22363;SDS011;11349;53.412;-1.328;2023-04-06T14:32:41;4.60;;;0.93;;
22363;SDS011;11349;53.412;-1.328;2023-04-06T14:35:06;5.97;;;1.90;;
22363;SDS011;11349;53.412;-1.328;2023-04-06T14:37:32;5.03;;;1.17;;
22363;SDS011;11349;53.412;-1.328;2023-04-06T14:39:58;6.63;;;1.35;;
22363;SDS011;11349;53.412;-1.328;2023-04-06T14:42:24;9.77;;;1.35;;
22363;SDS011;11349;53.412;-1.328;2023-04-06T14:44:50;7.82;;;1.23;;
22363;SDS011;11349;53.412;-1.328;2023-04-06T14:47:15;4.07;;;1.00;;
22363;SDS011;11349;53.412;-1.328;2023-04-06T14:49:45;7.68;;;1.50;;
22363;SDS011;11349;53.412;-1.328;2023-04-06T14:52:12;4.32;;;1.08;;
22363;SDS011;11349;53.412;-1.328;2023-04-06T14:54:38;6.70;;;1.42;;